createdAt,value
2018-06-13T00:02:45.595Z,14.40
2018-06-13T00:05:19.810Z,14.40
2018-06-13T00:07:54.092Z,14.40
2018-06-13T00:15:35.703Z,14.40
2018-06-13T00:18:09.946Z,14.40
2018-06-13T00:21:00.127Z,14.40
2018-06-13T00:23:44.204Z,14.40
2018-06-13T00:26:19.397Z,14.40
2018-06-13T00:28:53.525Z,14.40
2018-06-13T00:31:27.714Z,14.40
2018-06-13T00:34:01.964Z,14.40
2018-06-13T00:36:36.171Z,14.30
2018-06-13T00:39:11.295Z,14.30
2018-06-13T00:44:19.167Z,14.30
2018-06-13T00:46:54.372Z,14.30
2018-06-13T00:49:28.533Z,14.30
2018-06-13T00:52:02.671Z,14.30
2018-06-13T00:54:46.646Z,14.30
2018-06-13T00:57:20.837Z,14.30
2018-06-13T00:59:54.982Z,14.30
2018-06-13T01:02:29.193Z,14.20
2018-06-13T01:05:03.385Z,14.30
2018-06-13T01:07:37.599Z,14.20
2018-06-13T01:10:11.733Z,14.20
2018-06-13T01:12:45.901Z,14.20
2018-06-13T01:15:20.055Z,14.20
2018-06-13T01:17:54.248Z,14.20
2018-06-13T01:20:29.458Z,14.20
2018-06-13T01:23:03.647Z,14.20
2018-06-13T01:25:38.890Z,14.10
2018-06-13T01:28:13.099Z,14.10
2018-06-13T01:30:47.251Z,14.10
2018-06-13T01:33:21.441Z,14.10
2018-06-13T01:35:55.603Z,14.10
2018-06-13T01:38:31.028Z,14.00
2018-06-13T01:41:05.251Z,14.00
2018-06-13T01:43:40.466Z,14.00
2018-06-13T01:46:14.636Z,13.90
2018-06-13T01:48:48.841Z,13.90
2018-06-13T01:51:23.938Z,13.80
2018-06-13T01:53:58.140Z,13.70
2018-06-13T01:56:32.310Z,13.70
2018-06-13T01:59:06.491Z,13.60
2018-06-13T02:01:40.599Z,13.60
2018-06-13T02:04:14.785Z,13.60
2018-06-13T02:09:22.672Z,13.50
2018-06-13T02:11:56.840Z,13.50
2018-06-13T02:14:31.054Z,13.50
2018-06-13T02:17:05.214Z,13.40
2018-06-13T02:19:39.386Z,13.40
2018-06-13T02:22:13.563Z,13.40
2018-06-13T02:27:21.367Z,13.40
2018-06-13T02:35:05.004Z,13.30
2018-06-13T02:37:39.185Z,13.20
2018-06-13T02:40:14.477Z,13.20
2018-06-13T02:42:48.627Z,13.20
2018-06-13T02:45:22.846Z,13.20
2018-06-13T02:47:57.006Z,13.20
2018-06-13T02:50:31.208Z,13.20
2018-06-13T02:53:05.589Z,13.20
2018-06-13T02:55:39.806Z,13.20
2018-06-13T02:58:13.971Z,13.10
2018-06-13T03:00:48.158Z,13.10
2018-06-13T03:03:30.598Z,13.10
2018-06-13T03:06:13.233Z,13.10
2018-06-13T03:08:47.471Z,13.10
2018-06-13T03:11:21.637Z,13.10
2018-06-13T03:13:55.799Z,13.10
2018-06-13T03:16:30.012Z,13.00
2018-06-13T03:21:38.034Z,13.00
2018-06-13T03:24:12.183Z,13.10
2018-06-13T03:26:46.402Z,13.10
2018-06-13T03:29:22.307Z,13.10
2018-06-13T03:31:56.479Z,13.10
2018-06-13T03:34:30.623Z,13.10
2018-06-13T03:37:04.845Z,13.20
2018-06-13T03:39:39.987Z,13.10
2018-06-13T03:42:14.150Z,13.20
2018-06-13T03:44:48.334Z,13.20
2018-06-13T03:47:22.517Z,13.20
2018-06-13T03:49:56.723Z,13.20
2018-06-13T03:52:31.925Z,13.20
2018-06-13T03:55:07.162Z,13.20
2018-06-13T03:57:41.315Z,13.30
2018-06-13T04:00:15.499Z,13.30
2018-06-13T04:05:23.343Z,13.30
2018-06-13T04:07:57.553Z,13.40
2018-06-13T04:10:31.739Z,13.40
2018-06-13T04:18:13.298Z,13.40
2018-06-13T04:20:47.503Z,13.40
2018-06-13T04:23:21.622Z,13.40
2018-06-13T04:25:55.859Z,13.40
2018-06-13T04:28:30.002Z,13.40
2018-06-13T04:33:38.611Z,13.40
2018-06-13T04:36:12.804Z,13.50
2018-06-13T04:38:46.984Z,13.50
2018-06-13T04:41:21.107Z,13.50
2018-06-13T04:43:55.281Z,13.50
2018-06-13T04:46:29.427Z,13.60
2018-06-13T04:49:04.615Z,13.60
2018-06-13T04:51:38.753Z,13.60
2018-06-13T04:56:46.620Z,13.70
2018-06-13T04:59:20.834Z,13.70
2018-06-13T05:01:54.991Z,13.70
2018-06-13T05:09:37.612Z,13.70
2018-06-13T05:12:11.755Z,13.80
2018-06-13T05:14:46.934Z,13.80
2018-06-13T05:17:22.207Z,13.80
2018-06-13T05:19:56.403Z,13.80
2018-06-13T05:22:30.575Z,13.80
2018-06-13T05:25:04.755Z,13.70
2018-06-13T05:30:12.575Z,13.70
2018-06-13T05:32:47.785Z,13.70
2018-06-13T05:35:21.929Z,13.70
2018-06-13T05:37:56.108Z,13.70
2018-06-13T05:40:30.296Z,13.70
2018-06-13T05:43:04.575Z,13.70
2018-06-13T05:48:13.673Z,13.70
2018-06-13T05:50:48.847Z,13.80
2018-06-13T05:53:23.078Z,13.80
2018-06-13T05:55:57.249Z,13.80
2018-06-13T05:58:31.446Z,13.80
2018-06-13T06:01:05.626Z,13.90
2018-06-13T06:03:40.427Z,13.90
2018-06-13T06:08:48.301Z,14.00
2018-06-13T06:11:22.465Z,14.10
2018-06-13T06:13:56.624Z,14.30
2018-06-13T06:16:30.796Z,14.30
2018-06-13T06:19:05.921Z,14.40
2018-06-13T06:21:41.109Z,14.40
2018-06-13T06:24:16.299Z,14.40
2018-06-13T06:26:50.508Z,14.40
2018-06-13T06:31:58.411Z,14.30
2018-06-13T06:37:06.297Z,14.20
2018-06-13T06:39:40.504Z,14.10
2018-06-13T06:42:15.718Z,14.10
2018-06-13T06:44:50.056Z,14.00
2018-06-13T06:47:24.226Z,13.90
2018-06-13T06:49:59.419Z,13.90
2018-06-13T06:52:33.581Z,13.80
2018-06-13T06:55:07.779Z,13.80
2018-06-13T06:57:41.923Z,13.80
2018-06-13T07:00:16.078Z,13.70
2018-06-13T07:02:50.212Z,13.70
2018-06-13T07:07:58.071Z,13.80
2018-06-13T07:10:32.226Z,13.70
2018-06-13T07:15:40.118Z,13.60
2018-06-13T07:18:14.299Z,13.60
2018-06-13T07:20:48.504Z,13.60
2018-06-13T07:23:22.669Z,13.60
2018-06-13T07:25:56.879Z,13.70
2018-06-13T07:28:31.024Z,13.70
2018-06-13T07:33:39.015Z,13.80
2018-06-13T07:36:13.409Z,13.80
2018-06-13T07:38:47.542Z,13.80
2018-06-13T07:41:21.799Z,13.80
2018-06-13T07:43:55.973Z,13.80
2018-06-13T07:46:31.844Z,13.90
2018-06-13T07:51:39.663Z,13.90
2018-06-13T07:56:47.471Z,13.80
2018-06-13T08:01:56.326Z,13.90
2018-06-13T08:04:30.523Z,14.00
2018-06-13T08:09:39.419Z,14.20
2018-06-13T08:12:14.628Z,14.20
2018-06-13T08:14:48.816Z,14.30
2018-06-13T08:19:56.690Z,14.30
2018-06-13T08:22:31.847Z,14.20
2018-06-13T08:25:07.460Z,14.20
2018-06-13T08:27:48.516Z,14.20
2018-06-13T08:30:22.697Z,14.10
2018-06-13T08:35:30.818Z,14.20
2018-06-13T08:40:38.757Z,14.20
2018-06-13T08:43:12.983Z,14.20
2018-06-13T08:45:50.607Z,14.20
2018-06-13T08:48:24.855Z,14.20
2018-06-13T08:53:32.749Z,14.10
2018-06-13T08:56:22.113Z,14.20
2018-06-13T08:58:56.325Z,14.10
2018-06-13T09:01:30.602Z,14.10
2018-06-13T09:04:04.905Z,14.20
2018-06-13T09:06:41.380Z,14.30
2018-06-13T09:09:15.728Z,14.30
2018-06-13T09:11:49.870Z,14.40
2018-06-13T09:14:24.044Z,14.40
2018-06-13T09:16:58.234Z,14.50
2018-06-13T09:19:32.408Z,14.50
2018-06-13T09:22:06.614Z,14.50
2018-06-13T09:24:40.854Z,14.60
2018-06-13T09:29:49.980Z,14.80
2018-06-13T09:32:25.208Z,15.00
2018-06-13T09:34:59.472Z,15.00
2018-06-13T09:37:33.839Z,15.00
2018-06-13T09:40:11.384Z,15.20
2018-06-13T09:42:52.314Z,15.20
2018-06-13T09:50:42.826Z,15.70
2018-06-13T09:53:20.405Z,15.90
2018-06-13T09:56:00.671Z,16.20
2018-06-13T09:58:42.523Z,16.60
2018-06-13T10:01:24.680Z,17.00
2018-06-13T10:06:42.971Z,17.00
2018-06-13T10:09:21.085Z,17.20
2018-06-13T10:12:01.302Z,17.20
2018-06-13T10:14:50.907Z,17.30
2018-06-13T10:17:42.606Z,17.30
2018-06-13T10:20:22.592Z,17.40
2018-06-13T10:22:58.849Z,17.30
2018-06-13T10:25:38.226Z,17.20
2018-06-13T10:31:18.241Z,17.30
2018-06-13T10:33:58.531Z,17.40
2018-06-13T10:36:39.925Z,17.50
2018-06-13T10:39:38.100Z,17.60
2018-06-13T10:42:28.147Z,17.90
2018-06-13T11:01:46.162Z,19.20
2018-06-13T11:07:56.096Z,19.20
2018-06-13T11:17:01.951Z,19.10
2018-06-13T11:22:50.018Z,19.20
2018-06-13T11:25:47.059Z,19.30
2018-06-13T11:29:01.888Z,19.30
2018-06-13T11:32:34.057Z,19.30
2018-06-13T11:38:30.861Z,19.50
2018-06-13T11:41:44.473Z,19.40
2018-06-13T12:00:34.100Z,21.10
2018-06-13T12:10:10.557Z,21.80
2018-06-13T12:13:16.297Z,21.80
2018-06-13T12:22:32.377Z,21.00
2018-06-13T12:42:03.422Z,20.30
2018-06-13T12:48:12.877Z,20.20
2018-06-13T13:06:36.239Z,20.20
2018-06-13T13:09:30.265Z,20.20
2018-06-13T13:15:41.048Z,20.30
2018-06-13T13:18:50.391Z,20.20
2018-06-13T13:33:52.973Z,20.10
2018-06-13T13:36:27.945Z,20.00
2018-06-13T13:39:03.845Z,20.00
2018-06-13T13:41:41.529Z,19.90
2018-06-13T13:44:16.967Z,19.90
2018-06-13T13:46:52.263Z,19.90
2018-06-13T13:49:28.770Z,19.90
2018-06-13T13:52:04.592Z,19.90
2018-06-13T13:54:43.259Z,19.90
2018-06-13T13:57:19.499Z,19.80
2018-06-13T13:59:54.603Z,19.80
2018-06-13T14:05:05.094Z,19.90
2018-06-13T14:07:40.073Z,19.90
2018-06-13T14:10:15.459Z,19.80
2018-06-13T14:12:51.607Z,19.80
2018-06-13T14:15:27.101Z,20.00
2018-06-13T14:18:02.284Z,20.10
2018-06-13T14:23:12.054Z,20.00
2018-06-13T14:25:48.099Z,19.90
2018-06-13T14:28:35.981Z,19.80
2018-06-13T14:31:15.531Z,19.70
2018-06-13T14:33:55.632Z,19.60
2018-06-13T14:36:30.716Z,19.70
2018-06-13T14:39:11.644Z,19.60
2018-06-13T14:41:47.881Z,19.60
2018-06-13T14:44:26.412Z,19.50
2018-06-13T14:47:01.551Z,19.40
2018-06-13T14:52:45.744Z,19.50
2018-06-13T14:55:23.442Z,19.60
2018-06-13T15:01:08.359Z,19.50
2018-06-13T15:03:43.182Z,19.40
2018-06-13T15:06:17.954Z,19.30
2018-06-13T15:08:52.738Z,19.20
2018-06-13T15:11:27.467Z,19.00
2018-06-13T15:14:02.179Z,19.00
2018-06-13T15:16:36.963Z,19.10
2018-06-13T15:19:11.683Z,19.10
2018-06-13T15:21:46.454Z,19.20
2018-06-13T15:24:21.178Z,19.40
2018-06-13T15:26:55.925Z,19.60
2018-06-13T15:29:30.732Z,19.60
2018-06-13T15:32:06.567Z,19.40
2018-06-13T15:34:41.310Z,19.20
2018-06-13T15:37:16.057Z,19.00
2018-06-13T15:39:50.802Z,19.10
2018-06-13T15:42:25.745Z,19.20
2018-06-13T15:45:00.455Z,19.30
2018-06-13T15:50:09.474Z,19.70
2018-06-13T15:52:44.196Z,19.80
2018-06-13T15:55:19.007Z,19.80
2018-06-13T15:57:53.722Z,19.70
2018-06-13T16:00:28.760Z,19.60
2018-06-13T16:03:03.546Z,19.50
2018-06-13T16:08:13.866Z,19.50
2018-06-13T16:10:48.678Z,19.50
2018-06-13T16:13:24.561Z,19.50
2018-06-13T16:15:59.274Z,19.40
2018-06-13T16:18:34.182Z,19.40
2018-06-13T16:21:08.905Z,19.30
2018-06-13T16:23:45.626Z,19.30
2018-06-13T16:26:20.511Z,19.30
2018-06-13T16:28:55.231Z,19.20
2018-06-13T16:31:29.957Z,19.20
2018-06-13T16:34:04.722Z,19.10
2018-06-13T16:36:39.395Z,19.00
2018-06-13T16:39:25.000Z,19.00
2018-06-13T21:06:51.846Z,19.00
2018-06-13T21:12:00.513Z,12.50
2018-06-13T21:14:34.701Z,12.40
2018-06-13T21:17:08.843Z,12.30
2018-06-13T21:19:43.040Z,12.20
2018-06-13T21:22:18.290Z,12.20
2018-06-13T21:24:52.437Z,12.20
2018-06-13T21:27:26.555Z,12.20
2018-06-13T21:30:00.763Z,12.20
2018-06-13T21:32:34.926Z,12.20
2018-06-13T21:35:09.115Z,12.30
2018-06-13T21:40:17.025Z,12.50
2018-06-13T21:42:51.425Z,12.50
2018-06-13T21:45:35.462Z,12.60
2018-06-13T21:48:09.669Z,12.70
2018-06-13T21:50:44.867Z,12.80
2018-06-13T21:53:19.008Z,12.90
2018-06-13T21:55:53.172Z,13.00
2018-06-13T22:01:01.119Z,13.20
2018-06-13T22:03:35.348Z,13.30
2018-06-13T22:06:09.519Z,13.40
2018-06-13T22:08:43.675Z,13.50
2018-06-13T22:11:18.875Z,13.60
2018-06-13T22:13:53.012Z,13.60
2018-06-13T22:16:27.184Z,13.70
2018-06-13T22:21:36.044Z,13.80
2018-06-13T22:24:10.587Z,13.80
2018-06-13T22:26:47.109Z,13.80
2018-06-13T22:32:02.846Z,13.80
2018-06-13T22:34:37.011Z,13.90
2018-06-13T22:37:29.037Z,13.90
2018-06-13T22:40:04.272Z,13.90
2018-06-13T22:42:38.439Z,13.90
2018-06-13T22:45:27.169Z,13.90
2018-06-13T22:48:07.264Z,13.90
2018-06-13T22:50:48.528Z,13.90
2018-06-13T22:53:29.703Z,13.90
2018-06-13T22:56:03.874Z,13.90
2018-06-13T22:58:40.648Z,13.90
2018-06-13T23:01:20.076Z,13.90
2018-06-13T23:03:57.842Z,13.80
2018-06-13T23:06:32.261Z,13.80
2018-06-13T23:09:07.949Z,13.80
2018-06-13T23:14:19.624Z,13.80
2018-06-13T23:16:54.878Z,13.80
2018-06-13T23:19:30.103Z,13.80
2018-06-13T23:22:04.297Z,13.90
2018-06-13T23:24:38.475Z,13.80
2018-06-13T23:27:12.732Z,13.90
2018-06-13T23:29:46.939Z,13.90
2018-06-13T23:32:21.143Z,13.90
2018-06-13T23:34:56.374Z,13.90
2018-06-13T23:37:30.688Z,14.00
2018-06-13T23:40:04.868Z,14.00
2018-06-13T23:45:12.712Z,14.00
2018-06-13T23:47:53.037Z,14.00
2018-06-13T23:50:27.445Z,14.00
2018-06-13T23:53:02.660Z,14.00
2018-06-13T23:55:36.845Z,14.00
2018-06-13T23:58:11.036Z,14.00
